Dades meteomassalio
Diari Summary for Noviembre 11, 2017 Units:  English    Metric   Both
« Previous Day
Next Day »
Diari Semanal Mensual Anual Personalitzat
  Maxima: Minima: Mijana:
Temperatura: TemperatureC °F 10.0 °F 13.4 °F
Rosada: DewpointC °F 3.7 °F 7.6 °F
Humitat: Humidity % 58 % 68 %
Velocitat del vent: WindSpeedKMH mph 9.7 mph 26.9 mph
Racha vent: WindSpeedGustKMH mph - -
Vent:- - WNW
Pressio: PressurehPa in 1026.3 in -
Pluja: 0.0 in    
Historical Graphs
 
 
Tabular Data for Noviembre 11, 2017
Time Temperature Dew Point Pressure Wind Wind Speed Wind Gust Humidity Rainfall Rate (Hourly) solar Conditions
TemperatureC °F DewpointC °F PressurehPa in Calm     Humidity % HourlyPrecipMM in SolarRadiationWatts/m^2 W/m2 Conditions
00:00 12.2 °F 8.3 °F 1029.0 in ESE 24.1 mph 24.1 mph 77 % 0.0 in 0.0 W/m2 CLR
00:05 12.2 °F 8.3 °F 1029.0 in NW 31.5 mph 31.5 mph 77 % 0.0 in 0.0 W/m2 CLR
00:10 12.2 °F 8.3 °F 1028.7 in NNW 24.1 mph 24.1 mph 77 % 0.0 in 0.0 W/m2 CLR
00:15 12.2 °F 8.3 °F 1029.0 in NW 22.2 mph 22.2 mph 77 % 0.0 in 0.0 W/m2 CLR
00:20 12.2 °F 8.3 °F 1028.7 in NW 25.9 mph 25.9 mph 77 % 0.0 in 0.0 W/m2 CLR
00:25 12.2 °F 8.3 °F 1029.0 in NNW 25.9 mph 25.9 mph 77 % 0.0 in 0.0 W/m2 CLR
00:30 11.7 °F 7.8 °F 1029.0 in NW 20.9 mph 20.9 mph 77 % 0.0 in 0.0 W/m2 CLR
00:35 11.7 °F 7.8 °F 1029.0 in NW 18.5 mph 18.5 mph 77 % 0.0 in 0.0 W/m2 CLR
00:40 11.7 °F 7.6 °F 1029.0 in NW 24.1 mph 24.1 mph 76 % 0.0 in 0.0 W/m2 CLR
00:45 11.7 °F 7.6 °F 1029.0 in NW 24.1 mph 24.1 mph 76 % 0.0 in 0.0 W/m2 CLR
00:50 11.7 °F 7.6 °F 1029.0 in WNW 20.9 mph 20.9 mph 76 % 0.0 in 0.0 W/m2 CLR
00:55 11.7 °F 7.6 °F 1029.0 in NW 22.2 mph 22.2 mph 76 % 0.0 in 0.0 W/m2 CLR
01:00 11.7 °F 7.6 °F 1029.0 in NW 17.7 mph 17.7 mph 76 % 0.0 in 0.0 W/m2 CLR
01:05 11.7 °F 7.6 °F 1029.0 in NW 25.9 mph 25.9 mph 76 % 0.0 in 0.0 W/m2 CLR
01:10 11.7 °F 7.6 °F 1029.0 in WNW 18.5 mph 18.5 mph 76 % 0.0 in 0.0 W/m2 CLR
01:15 11.7 °F 7.6 °F 1029.0 in NW 25.7 mph 25.7 mph 76 % 0.0 in 0.0 W/m2 CLR
01:20 11.7 °F 7.4 °F 1028.7 in NW 19.3 mph 19.3 mph 75 % 0.0 in 0.0 W/m2 CLR
01:25 11.7 °F 7.6 °F 1028.7 in WNW 31.5 mph 31.5 mph 76 % 0.0 in 0.0 W/m2 CLR
01:30 11.7 °F 7.6 °F 1028.7 in NW 25.7 mph 25.7 mph 76 % 0.0 in 0.0 W/m2 CLR
01:35 11.7 °F 7.6 °F 1028.7 in NW 31.5 mph 31.5 mph 76 % 0.0 in 0.0 W/m2 CLR
01:40 11.7 °F 7.6 °F 1028.7 in NW 31.5 mph 31.5 mph 76 % 0.0 in 0.0 W/m2 CLR
01:45 11.7 °F 7.4 °F 1028.3 in WNW 29.6 mph 29.6 mph 75 % 0.0 in 0.0 W/m2 CLR
01:50 11.7 °F 7.4 °F 1028.3 in NW 31.5 mph 31.5 mph 75 % 0.0 in 0.0 W/m2 CLR
01:55 11.7 °F 7.4 °F 1028.7 in NW 29.6 mph 29.6 mph 75 % 0.0 in 0.0 W/m2 CLR
02:00 11.7 °F 7.4 °F 1028.7 in NNW 25.9 mph 25.9 mph 75 % 0.0 in 0.0 W/m2 CLR
02:05 11.7 °F 7.4 °F 1028.7 in WNW 20.4 mph 20.4 mph 75 % 0.0 in 0.0 W/m2 CLR
02:10 11.7 °F 7.4 °F 1028.7 in NW 29.6 mph 29.6 mph 75 % 0.0 in 0.0 W/m2 CLR
02:15 11.7 °F 7.2 °F 1028.7 in NNW 27.8 mph 27.8 mph 74 % 0.0 in 0.0 W/m2 CLR
02:20 12.2 °F 7.7 °F 1028.7 in NW 24.1 mph 24.1 mph 74 % 0.0 in 0.0 W/m2 CLR
02:25 11.7 °F 7.2 °F 1028.7 in WNW 22.2 mph 22.2 mph 74 % 0.0 in 0.0 W/m2 CLR
02:30 11.7 °F 7.2 °F 1028.7 in NW 31.5 mph 31.5 mph 74 % 0.0 in 0.0 W/m2 CLR
02:35 11.7 °F 7.2 °F 1028.7 in NW 27.8 mph 27.8 mph 74 % 0.0 in 0.0 W/m2 CLR
02:40 11.7 °F 7.2 °F 1028.7 in NW 29.6 mph 29.6 mph 74 % 0.0 in 0.0 W/m2 CLR
02:45 11.7 °F 7.2 °F 1028.7 in NW 25.9 mph 25.9 mph 74 % 0.0 in 0.0 W/m2 CLR
02:50 11.7 °F 7.2 °F 1028.7 in NW 24.1 mph 24.1 mph 74 % 0.0 in 0.0 W/m2 CLR
02:56 11.7 °F 7.2 °F 1028.7 in WNW 25.9 mph 25.9 mph 74 % 0.0 in 0.0 W/m2 CLR
03:01 11.7 °F 7.2 °F 1028.3 in NW 25.9 mph 25.9 mph 74 % 0.0 in 0.0 W/m2 CLR
03:06 11.7 °F 7.2 °F 1028.3 in NNW 24.1 mph 24.1 mph 74 % 0.0 in 0.0 W/m2 CLR
03:11 11.7 °F 7.4 °F 1028.3 in NW 38.9 mph 38.9 mph 75 % 0.0 in 0.0 W/m2 CLR
03:16 11.7 °F 7.4 °F 1028.0 in NNW 40.2 mph 40.2 mph 75 % 0.0 in 0.0 W/m2 CLR
03:21 11.1 °F 6.8 °F 1028.0 in NNW 35.4 mph 35.4 mph 75 % 0.0 in 0.0 W/m2 CLR
03:26 11.1 °F 6.8 °F 1028.0 in North 31.5 mph 31.5 mph 75 % 0.0 in 0.0 W/m2 CLR
03:31 11.1 °F 6.8 °F 1028.0 in NNW 29.6 mph 29.6 mph 75 % 0.0 in 0.0 W/m2 CLR
03:36 11.1 °F 7.1 °F 1028.0 in North 27.4 mph 27.4 mph 76 % 0.0 in 0.0 W/m2 CLR
03:41 11.1 °F 7.1 °F 1028.3 in WNW 22.2 mph 22.2 mph 76 % 0.0 in 0.0 W/m2 CLR
03:46 11.1 °F 7.1 °F 1028.3 in NNW 24.1 mph 24.1 mph 76 % 0.0 in 0.0 W/m2 CLR
03:51 11.1 °F 7.1 °F 1028.3 in NW 22.2 mph 22.2 mph 76 % 0.0 in 0.0 W/m2 CLR
03:53 11.1 °F 7.2 °F 1028.3 in NW 20.9 mph 20.9 mph 77 % 0.0 in 0.0 W/m2 CLR
03:58 11.1 °F 7.2 °F 1028.7 in WNW 20.4 mph 20.4 mph 77 % 0.0 in 0.0 W/m2 CLR
04:03 11.1 °F 7.2 °F 1028.7 in NW 18.5 mph 18.5 mph 77 % 0.0 in 0.0 W/m2 CLR
04:08 11.1 °F 7.2 °F 1028.3 in WNW 18.5 mph 18.5 mph 77 % 0.0 in 0.0 W/m2 CLR
04:13 11.1 °F 7.2 °F 1028.3 in NW 31.5 mph 31.5 mph 77 % 0.0 in 0.0 W/m2 CLR
04:18 11.1 °F 7.1 °F 1028.3 in NW 25.9 mph 25.9 mph 76 % 0.0 in 0.0 W/m2 CLR
04:24 11.7 °F 7.6 °F 1028.3 in NW 27.8 mph 27.8 mph 76 % 0.0 in 0.0 W/m2 CLR
04:25 11.7 °F 7.6 °F 1028.3 in NW 27.8 mph 27.8 mph 76 % 0.0 in 0.0 W/m2 CLR
04:30 11.7 °F 7.6 °F 1028.3 in NW 31.5 mph 31.5 mph 76 % 0.0 in 0.0 W/m2 CLR
04:35 11.7 °F 7.6 °F 1028.3 in WNW 24.1 mph 24.1 mph 76 % 0.0 in 0.0 W/m2 CLR
04:40 11.7 °F 7.6 °F 1028.3 in WNW 31.5 mph 31.5 mph 76 % 0.0 in 0.0 W/m2 CLR
04:45 11.7 °F 7.6 °F 1028.3 in WNW 22.2 mph 22.2 mph 76 % 0.0 in 0.0 W/m2 CLR
04:50 11.1 °F 7.1 °F 1028.3 in NW 30.6 mph 30.6 mph 76 % 0.0 in 0.0 W/m2 CLR
04:55 11.1 °F 7.1 °F 1028.3 in WNW 16.7 mph 16.7 mph 76 % 0.0 in 0.0 W/m2 CLR
05:00 11.1 °F 7.2 °F 1028.3 in NNW 29.0 mph 29.0 mph 77 % 0.0 in 0.0 W/m2 CLR
05:05 11.1 °F 7.2 °F 1028.0 in NW 18.5 mph 18.5 mph 77 % 0.0 in 0.0 W/m2 CLR
05:10 11.1 °F 7.2 °F 1028.0 in SW 27.8 mph 27.8 mph 77 % 0.0 in 0.0 W/m2 CLR
05:15 11.1 °F 7.1 °F 1028.0 in NW 19.3 mph 19.3 mph 76 % 0.0 in 0.0 W/m2 CLR
05:20 11.1 °F 7.2 °F 1028.0 in WNW 31.5 mph 31.5 mph 77 % 0.0 in 0.0 W/m2 CLR
05:25 11.1 °F 7.2 °F 1028.3 in WNW 27.8 mph 27.8 mph 77 % 0.0 in 0.0 W/m2 CLR
05:30 11.1 °F 7.1 °F 1028.0 in West 16.7 mph 16.7 mph 76 % 0.0 in 0.0 W/m2 CLR
05:35 11.1 °F 7.2 °F 1028.0 in NNW 25.9 mph 25.9 mph 77 % 0.0 in 0.0 W/m2 CLR
05:40 11.1 °F 7.2 °F 1028.3 in NNW 20.4 mph 20.4 mph 77 % 0.0 in 0.0 W/m2 CLR
05:45 11.1 °F 7.2 °F 1028.3 in NNW 29.6 mph 29.6 mph 77 % 0.0 in 0.0 W/m2 CLR
05:50 10.6 °F 6.7 °F 1028.3 in NW 24.1 mph 24.1 mph 77 % 0.0 in 0.0 W/m2 CLR
05:55 10.6 °F 6.7 °F 1028.0 in WNW 29.6 mph 29.6 mph 77 % 0.0 in 0.0 W/m2 CLR
06:00 11.1 °F 7.2 °F 1028.0 in NNW 35.2 mph 35.2 mph 77 % 0.0 in 0.0 W/m2 CLR
06:05 11.1 °F 7.2 °F 1028.0 in WNW 25.9 mph 25.9 mph 77 % 0.0 in 0.0 W/m2 CLR
06:10 11.1 °F 7.2 °F 1028.0 in NW 25.9 mph 25.9 mph 77 % 0.0 in 0.0 W/m2 CLR
06:15 11.1 °F 7.2 °F 1028.0 in NNW 20.9 mph 20.9 mph 77 % 0.0 in 0.0 W/m2 CLR
06:20 11.1 °F 7.2 °F 1028.0 in WNW 29.6 mph 29.6 mph 77 % 0.0 in 0.0 W/m2 CLR
06:25 11.1 °F 7.2 °F 1028.0 in NW 37.0 mph 37.0 mph 77 % 0.0 in 0.0 W/m2 CLR
06:30 11.1 °F 7.2 °F 1028.0 in NW 40.7 mph 40.7 mph 77 % 0.0 in 0.0 W/m2 CLR
06:35 11.1 °F 7.2 °F 1027.7 in WNW 27.8 mph 27.8 mph 77 % 0.0 in 0.0 W/m2 CLR
06:40 11.1 °F 7.2 °F 1028.0 in NNW 33.3 mph 33.3 mph 77 % 0.0 in 0.0 W/m2 CLR
06:45 11.1 °F 7.2 °F 1028.0 in NW 42.6 mph 42.6 mph 77 % 0.0 in 0.0 W/m2 CLR
06:50 10.6 °F 6.7 °F 1028.0 in NNW 38.9 mph 38.9 mph 77 % 0.0 in 0.0 W/m2 CLR
06:55 10.6 °F 6.7 °F 1028.0 in NNW 31.5 mph 31.5 mph 77 % 0.0 in 0.0 W/m2 CLR
07:00 11.1 °F 7.2 °F 1028.0 in NNW 35.4 mph 35.4 mph 77 % 0.0 in 0.0 W/m2 CLR
07:05 11.1 °F 7.2 °F 1028.0 in NNW 37.0 mph 37.0 mph 77 % 0.0 in 0.0 W/m2 CLR
07:15 11.1 °F 7.4 °F 1028.0 in NNW 37.0 mph 37.0 mph 78 % 0.0 in 0.0 W/m2 CLR
07:20 11.1 °F 7.4 °F 1028.0 in NW 31.5 mph 31.5 mph 78 % 0.0 in 0.0 W/m2 CLR
07:25 10.6 °F 6.9 °F 1028.0 in NW 37.0 mph 37.0 mph 78 % 0.0 in 0.0 W/m2 CLR
07:30 10.6 °F 6.7 °F 1028.3 in NW 24.1 mph 24.1 mph 77 % 0.0 in 0.0 W/m2 CLR
07:35 11.1 °F 7.2 °F 1028.3 in NW 18.5 mph 18.5 mph 77 % 0.0 in 0.0 W/m2 OVC
07:40 10.6 °F 6.9 °F 1028.3 in NW 22.2 mph 22.2 mph 78 % 0.0 in 5.0 W/m2 OVC
07:41 11.1 °F 7.2 °F 1028.3 in NW 20.4 mph 20.4 mph 77 % 0.0 in 5.0 W/m2 OVC
07:46 10.6 °F 6.7 °F 1028.3 in WNW 18.5 mph 18.5 mph 77 % 0.0 in 5.0 W/m2 OVC
07:51 10.6 °F 6.7 °F 1028.3 in WNW 14.8 mph 14.8 mph 77 % 0.0 in 9.0 W/m2 OVC
07:56 10.6 °F 6.7 °F 1028.7 in NW 18.5 mph 18.5 mph 77 % 0.0 in 11.0 W/m2 OVC
08:01 10.6 °F 6.7 °F 1028.3 in NW 14.8 mph 14.8 mph 77 % 0.0 in 12.0 W/m2 OVC
08:06 10.6 °F 6.9 °F 1028.7 in WNW 22.2 mph 22.2 mph 78 % 0.0 in 16.0 W/m2 OVC
08:11 10.6 °F 6.7 °F 1028.7 in WNW 25.9 mph 25.9 mph 77 % 0.0 in 21.0 W/m2 OVC
08:16 10.6 °F 6.7 °F 1028.7 in NW 16.7 mph 16.7 mph 77 % 0.0 in 28.0 W/m2 OVC
08:21 10.6 °F 6.7 °F 1028.7 in WNW 18.5 mph 18.5 mph 77 % 0.0 in 32.0 W/m2 OVC
08:26 11.1 °F 7.1 °F 1028.7 in NW 25.9 mph 25.9 mph 76 % 0.0 in 35.0 W/m2 OVC
08:31 11.1 °F 7.1 °F 1028.7 in NW 19.3 mph 19.3 mph 76 % 0.0 in 40.0 W/m2 OVC
08:36 11.1 °F 7.1 °F 1028.7 in NW 18.5 mph 18.5 mph 76 % 0.0 in 62.0 W/m2 OVC
08:41 11.1 °F 7.1 °F 1028.7 in NW 16.7 mph 16.7 mph 76 % 0.0 in 67.0 W/m2 OVC
08:46 11.7 °F 7.6 °F 1028.7 in WNW 18.5 mph 18.5 mph 76 % 0.0 in 60.0 W/m2 BKN
08:51 11.7 °F 7.6 °F 1028.7 in NNW 18.5 mph 18.5 mph 76 % 0.0 in 62.0 W/m2 SCT
08:56 11.7 °F 7.6 °F 1028.7 in NW 13.0 mph 13.0 mph 76 % 0.0 in 65.0 W/m2 SCT
09:01 11.7 °F 7.4 °F 1028.7 in WNW 14.8 mph 14.8 mph 75 % 0.0 in 81.0 W/m2 FEW
09:06 11.7 °F 7.4 °F 1028.7 in WNW 18.5 mph 18.5 mph 75 % 0.0 in 105.0 W/m2 FEW
09:11 11.7 °F 7.4 °F 1029.0 in WNW 22.2 mph 22.2 mph 75 % 0.0 in 127.0 W/m2 CLR
09:16 12.2 °F 7.9 °F 1029.0 in NNW 18.5 mph 18.5 mph 75 % 0.0 in 121.0 W/m2 CLR
09:21 12.2 °F 7.9 °F 1029.0 in NW 24.1 mph 24.1 mph 75 % 0.0 in 179.0 W/m2 CLR
09:26 12.2 °F 7.7 °F 1029.0 in WNW 18.5 mph 18.5 mph 74 % 0.0 in 207.0 W/m2 CLR
09:31 12.2 °F 7.7 °F 1029.0 in NW 16.7 mph 16.7 mph 74 % 0.0 in 172.0 W/m2 CLR
09:36 12.8 °F 8.1 °F 1028.7 in WNW 14.8 mph 14.8 mph 73 % 0.0 in 151.0 W/m2 CLR
09:41 12.8 °F 8.1 °F 1029.0 in NW 22.2 mph 22.2 mph 73 % 0.0 in 311.0 W/m2 CLR
09:46 13.3 °F 8.6 °F 1029.0 in NNW 22.5 mph 22.5 mph 73 % 0.0 in 297.0 W/m2 CLR
09:51 13.3 °F 8.4 °F 1029.0 in NNW 24.1 mph 24.1 mph 72 % 0.0 in 323.0 W/m2 CLR
09:56 13.3 °F 8.4 °F 1029.0 in NNW 22.5 mph 22.5 mph 72 % 0.0 in 214.0 W/m2 CLR
10:01 13.3 °F 8.4 °F 1029.0 in WNW 22.2 mph 22.2 mph 72 % 0.0 in 204.0 W/m2 CLR
10:06 13.3 °F 8.4 °F 1029.0 in NW 31.5 mph 31.5 mph 72 % 0.0 in 420.0 W/m2 CLR
10:11 13.9 °F 8.7 °F 1029.0 in WNW 27.8 mph 27.8 mph 71 % 0.0 in 399.0 W/m2 CLR
10:16 13.9 °F 8.5 °F 1029.0 in NNW 25.7 mph 25.7 mph 70 % 0.0 in 406.0 W/m2 CLR
10:21 14.4 °F 8.8 °F 1028.7 in North 24.1 mph 24.1 mph 69 % 0.0 in 387.0 W/m2 CLR
10:26 14.4 °F 8.6 °F 1028.7 in North 29.6 mph 29.6 mph 68 % 0.0 in 316.0 W/m2 CLR
10:31 14.4 °F 8.6 °F 1028.7 in NNW 35.4 mph 35.4 mph 68 % 0.0 in 427.0 W/m2 CLR
10:37 14.4 °F 8.6 °F 1028.7 in North 29.6 mph 29.6 mph 68 % 0.0 in 172.0 W/m2 CLR
10:42 14.4 °F 8.6 °F 1028.7 in NW 22.2 mph 22.2 mph 68 % 0.0 in 469.0 W/m2 CLR
10:47 15.0 °F 8.9 °F 1028.7 in NNW 33.3 mph 33.3 mph 67 % 0.0 in 308.0 W/m2 CLR
10:52 15.0 °F 8.7 °F 1028.7 in NNW 37.0 mph 37.0 mph 66 % 0.0 in 178.0 W/m2 CLR
10:57 15.6 °F 9.2 °F 1028.7 in NW 42.6 mph 42.6 mph 66 % 0.0 in 178.0 W/m2 CLR
11:02 15.6 °F 9.2 °F 1028.7 in WNW 33.3 mph 33.3 mph 66 % 0.0 in 482.0 W/m2 CLR
11:07 15.6 °F 9.2 °F 1028.7 in North 29.6 mph 29.6 mph 66 % 0.0 in 244.0 W/m2 CLR
11:12 15.6 °F 9.2 °F 1028.7 in NNW 37.0 mph 37.0 mph 66 % 0.0 in 387.0 W/m2 CLR
11:17 15.6 °F 9.0 °F 1028.7 in North 33.3 mph 33.3 mph 65 % 0.0 in 582.0 W/m2 CLR
11:22 15.6 °F 9.0 °F 1028.7 in North 35.2 mph 35.2 mph 65 % 0.0 in 380.0 W/m2 CLR
11:27 15.6 °F 9.0 °F 1028.7 in North 31.5 mph 31.5 mph 65 % 0.0 in 255.0 W/m2 CLR
11:32 15.6 °F 9.0 °F 1028.7 in North 41.8 mph 41.8 mph 65 % 0.0 in 364.0 W/m2 CLR
11:37 16.1 °F 9.5 °F 1028.3 in NNW 38.9 mph 38.9 mph 65 % 0.0 in 309.0 W/m2 CLR
11:42 16.1 °F 9.5 °F 1028.7 in North 35.2 mph 35.2 mph 65 % 0.0 in 497.0 W/m2 CLR
11:47 16.1 °F 9.3 °F 1028.7 in North 38.9 mph 38.9 mph 64 % 0.0 in 510.0 W/m2 CLR
11:52 16.1 °F 9.3 °F 1028.7 in NNW 29.6 mph 29.6 mph 64 % 0.0 in 431.0 W/m2 CLR
11:57 16.1 °F 9.1 °F 1028.7 in NNW 29.6 mph 29.6 mph 63 % 0.0 in 415.0 W/m2 CLR
12:02 16.1 °F 9.1 °F 1028.3 in North 31.5 mph 31.5 mph 63 % 0.0 in 668.0 W/m2 CLR
12:07 16.1 °F 9.3 °F 1028.3 in NNW 22.5 mph 22.5 mph 64 % 0.0 in 522.0 W/m2 CLR
12:12 16.1 °F 9.1 °F 1028.3 in NNW 37.0 mph 37.0 mph 63 % 0.0 in 636.0 W/m2 CLR
12:17 16.7 °F 9.6 °F 1028.3 in North 38.6 mph 38.6 mph 63 % 0.0 in 629.0 W/m2 CLR
12:22 16.1 °F 9.3 °F 1028.0 in NNW 29.6 mph 29.6 mph 64 % 0.0 in 603.0 W/m2 CLR
12:27 16.1 °F 9.1 °F 1028.0 in NNW 38.6 mph 38.6 mph 63 % 0.0 in 603.0 W/m2 CLR
12:32 16.1 °F 9.1 °F 1028.0 in North 31.5 mph 31.5 mph 63 % 0.0 in 413.0 W/m2 CLR
12:37 16.1 °F 9.1 °F 1027.7 in NNW 24.1 mph 24.1 mph 63 % 0.0 in 599.0 W/m2 CLR
12:42 16.7 °F 9.3 °F 1027.7 in NNW 33.3 mph 33.3 mph 62 % 0.0 in 596.0 W/m2 CLR
12:47 17.2 °F 9.9 °F 1027.7 in North 27.4 mph 27.4 mph 62 % 0.0 in 543.0 W/m2 CLR
12:52 17.2 °F 9.6 °F 1027.7 in North 31.5 mph 31.5 mph 61 % 0.0 in 475.0 W/m2 CLR
12:57 17.2 °F 9.6 °F 1027.7 in North 35.4 mph 35.4 mph 61 % 0.0 in 483.0 W/m2 CLR
13:02 17.2 °F 9.6 °F 1027.7 in North 35.2 mph 35.2 mph 61 % 0.0 in 575.0 W/m2 CLR
13:07 17.2 °F 9.6 °F 1027.3 in North 31.5 mph 31.5 mph 61 % 0.0 in 608.0 W/m2 CLR
13:12 16.7 °F 8.9 °F 1027.3 in North 31.5 mph 31.5 mph 60 % 0.0 in 153.0 W/m2 CLR
13:17 16.7 °F 9.1 °F 1027.3 in North 30.6 mph 30.6 mph 61 % 0.0 in 118.0 W/m2 CLR
13:22 16.7 °F 9.1 °F 1027.3 in NW 33.3 mph 33.3 mph 61 % 0.0 in 619.0 W/m2 CLR
13:27 17.2 °F 9.1 °F 1027.0 in North 33.3 mph 33.3 mph 59 % 0.0 in 628.0 W/m2 CLR
13:32 17.8 °F 9.7 °F 1027.0 in NNW 35.2 mph 35.2 mph 59 % 0.0 in 592.0 W/m2 CLR
13:37 17.2 °F 9.1 °F 1027.0 in NW 27.8 mph 27.8 mph 59 % 0.0 in 459.0 W/m2 CLR
13:42 17.8 °F 9.4 °F 1027.0 in NW 25.9 mph 25.9 mph 58 % 0.0 in 596.0 W/m2 CLR
13:47 17.2 °F 9.1 °F 1027.0 in North 31.5 mph 31.5 mph 59 % 0.0 in 95.0 W/m2 CLR
13:52 16.7 °F 8.9 °F 1027.0 in NW 33.3 mph 33.3 mph 60 % 0.0 in 100.0 W/m2 CLR
13:57 16.1 °F 8.6 °F 1026.6 in NW 20.9 mph 20.9 mph 61 % 0.0 in 575.0 W/m2 CLR
14:02 17.2 °F 9.1 °F 1026.6 in NW 37.0 mph 37.0 mph 59 % 0.0 in 613.0 W/m2 CLR
14:07 17.2 °F 9.4 °F 1026.6 in NW 20.9 mph 20.9 mph 60 % 0.0 in 469.0 W/m2 CLR
14:12 17.8 °F 9.4 °F 1026.6 in NNE 37.0 mph 37.0 mph 58 % 0.0 in 557.0 W/m2 CLR
14:17 17.8 °F 9.4 °F 1026.6 in North 33.3 mph 33.3 mph 58 % 0.0 in 404.0 W/m2 CLR
14:22 17.2 °F 9.1 °F 1026.6 in NNW 24.1 mph 24.1 mph 59 % 0.0 in 236.0 W/m2 CLR
14:27 17.8 °F 9.4 °F 1026.6 in NNW 33.3 mph 33.3 mph 58 % 0.0 in 121.0 W/m2 CLR
14:32 17.2 °F 9.1 °F 1026.3 in NNW 27.8 mph 27.8 mph 59 % 0.0 in 540.0 W/m2 CLR
14:37 17.8 °F 9.4 °F 1026.3 in NNW 32.2 mph 32.2 mph 58 % 0.0 in 139.0 W/m2 CLR
14:43 17.2 °F 9.1 °F 1026.3 in North 25.7 mph 25.7 mph 59 % 0.0 in 139.0 W/m2 CLR
14:47 16.7 °F 8.6 °F 1026.3 in NNW 27.8 mph 27.8 mph 59 % 0.0 in 151.0 W/m2 CLR
14:52 16.7 °F 8.6 °F 1026.3 in NNW 24.1 mph 24.1 mph 59 % 0.0 in 153.0 W/m2 CLR
14:58 16.7 °F 8.6 °F 1026.3 in North 33.3 mph 33.3 mph 59 % 0.0 in 113.0 W/m2 CLR
15:03 16.7 °F 8.9 °F 1026.3 in NNW 22.5 mph 22.5 mph 60 % 0.0 in 232.0 W/m2 CLR
15:08 17.2 °F 9.1 °F 1026.3 in NW 22.2 mph 22.2 mph 59 % 0.0 in 218.0 W/m2 CLR
15:13 17.2 °F 8.9 °F 1026.3 in NNW 20.9 mph 20.9 mph 58 % 0.0 in 185.0 W/m2 CLR
15:18 17.2 °F 8.9 °F 1026.3 in North 31.5 mph 31.5 mph 58 % 0.0 in 176.0 W/m2 CLR
15:23 17.2 °F 8.9 °F 1026.3 in NW 29.6 mph 29.6 mph 58 % 0.0 in 234.0 W/m2 CLR
15:28 17.2 °F 8.9 °F 1026.3 in NNE 38.9 mph 38.9 mph 58 % 0.0 in 195.0 W/m2 CLR
15:33 17.2 °F 8.9 °F 1026.3 in NNW 31.5 mph 31.5 mph 58 % 0.0 in 179.0 W/m2 CLR
15:38 17.2 °F 8.9 °F 1026.3 in NNE 29.0 mph 29.0 mph 58 % 0.0 in 142.0 W/m2 CLR
15:43 17.2 °F 8.9 °F 1026.3 in NW 27.8 mph 27.8 mph 58 % 0.0 in 251.0 W/m2 CLR
15:48 17.2 °F 8.9 °F 1026.3 in NW 27.8 mph 27.8 mph 58 % 0.0 in 162.0 W/m2 CLR
15:53 17.2 °F 8.9 °F 1026.3 in NNW 22.2 mph 22.2 mph 58 % 0.0 in 84.0 W/m2 CLR
15:58 17.2 °F 8.9 °F 1026.3 in NNW 35.2 mph 35.2 mph 58 % 0.0 in 95.0 W/m2 CLR
16:03 17.2 °F 8.9 °F 1026.3 in North 35.2 mph 35.2 mph 58 % 0.0 in 79.0 W/m2 CLR
16:08 16.7 °F 8.6 °F 1026.3 in NNW 31.5 mph 31.5 mph 59 % 0.0 in 88.0 W/m2 CLR
16:13 16.7 °F 8.3 °F 1026.3 in North 42.6 mph 42.6 mph 58 % 0.0 in 72.0 W/m2 FEW
16:18 16.7 °F 8.6 °F 1026.3 in NNW 31.5 mph 31.5 mph 59 % 0.0 in 95.0 W/m2 FEW
16:23 16.7 °F 8.6 °F 1026.3 in North 22.2 mph 22.2 mph 59 % 0.0 in 86.0 W/m2 CLR
16:28 16.7 °F 8.3 °F 1026.3 in North 31.5 mph 31.5 mph 58 % 0.0 in 83.0 W/m2 CLR
16:33 16.7 °F 8.3 °F 1026.3 in North 43.4 mph 43.4 mph 58 % 0.0 in 72.0 W/m2 FEW
16:38 16.7 °F 8.6 °F 1026.3 in NW 29.6 mph 29.6 mph 59 % 0.0 in 74.0 W/m2 FEW
16:43 16.7 °F 8.6 °F 1026.3 in NW 31.5 mph 31.5 mph 59 % 0.0 in 60.0 W/m2 FEW
16:48 16.1 °F 8.1 °F 1026.3 in NW 27.8 mph 27.8 mph 59 % 0.0 in 56.0 W/m2 SCT
16:49 16.1 °F 8.1 °F 1026.3 in NW 25.9 mph 25.9 mph 59 % 0.0 in 54.0 W/m2 SCT
16:54 16.1 °F 8.1 °F 1026.3 in NNW 31.5 mph 31.5 mph 59 % 0.0 in 42.0 W/m2 BKN
16:59 16.1 °F 8.1 °F 1026.3 in NNW 25.9 mph 25.9 mph 59 % 0.0 in 39.0 W/m2 BKN
17:04 16.1 °F 8.1 °F 1026.3 in NNW 27.8 mph 27.8 mph 59 % 0.0 in 40.0 W/m2 BKN
17:09 16.1 °F 8.1 °F 1026.3 in NNW 32.2 mph 32.2 mph 59 % 0.0 in 40.0 W/m2 BKN
17:14 16.1 °F 8.1 °F 1026.3 in NW 29.6 mph 29.6 mph 59 % 0.0 in 37.0 W/m2 BKN
17:19 16.1 °F 8.1 °F 1026.3 in NNW 25.9 mph 25.9 mph 59 % 0.0 in 25.0 W/m2 BKN
17:24 16.1 °F 8.3 °F 1026.3 in NNW 37.0 mph 37.0 mph 60 % 0.0 in 26.0 W/m2 BKN
17:29 16.1 °F 8.3 °F 1026.3 in NW 33.3 mph 33.3 mph 60 % 0.0 in 18.0 W/m2 BKN
17:34 15.6 °F 8.1 °F 1026.3 in NNW 38.9 mph 38.9 mph 61 % 0.0 in 11.0 W/m2 BKN
17:39 15.6 °F 8.1 °F 1026.3 in NNW 33.3 mph 33.3 mph 61 % 0.0 in 9.0 W/m2 BKN
17:44 15.6 °F 8.1 °F 1026.3 in NNW 35.2 mph 35.2 mph 61 % 0.0 in 7.0 W/m2 BKN
17:49 15.6 °F 8.1 °F 1026.3 in NW 27.8 mph 27.8 mph 61 % 0.0 in 5.0 W/m2 BKN
17:54 15.6 °F 8.1 °F 1026.3 in North 25.9 mph 25.9 mph 61 % 0.0 in 0.0 W/m2 OVC
17:59 15.0 °F 7.6 °F 1026.3 in NNW 24.1 mph 24.1 mph 61 % 0.0 in 0.0 W/m2 CLR
18:04 15.0 °F 7.8 °F 1026.6 in NNW 22.2 mph 22.2 mph 62 % 0.0 in 0.0 W/m2 CLR
18:09 15.0 °F 7.8 °F 1026.6 in North 40.7 mph 40.7 mph 62 % 0.0 in 0.0 W/m2 CLR
18:14 15.0 °F 7.8 °F 1026.6 in NNW 31.5 mph 31.5 mph 62 % 0.0 in 0.0 W/m2 CLR
18:19 14.4 °F 7.2 °F 1026.6 in North 31.5 mph 31.5 mph 62 % 0.0 in 0.0 W/m2 CLR
18:24 14.4 °F 7.5 °F 1026.6 in NNW 37.0 mph 37.0 mph 63 % 0.0 in 0.0 W/m2 CLR
18:29 14.4 °F 7.5 °F 1026.6 in NW 27.8 mph 27.8 mph 63 % 0.0 in 0.0 W/m2 CLR
18:34 14.4 °F 7.5 °F 1027.0 in NNW 25.9 mph 25.9 mph 63 % 0.0 in 0.0 W/m2 CLR
18:39 14.4 °F 7.5 °F 1027.0 in NW 16.1 mph 16.1 mph 63 % 0.0 in 0.0 W/m2 CLR
18:44 13.9 °F 6.9 °F 1027.0 in WNW 25.9 mph 25.9 mph 63 % 0.0 in 0.0 W/m2 CLR
18:49 13.9 °F 7.2 °F 1027.0 in NW 29.6 mph 29.6 mph 64 % 0.0 in 0.0 W/m2 CLR
18:54 13.9 °F 7.2 °F 1027.0 in NW 25.9 mph 25.9 mph 64 % 0.0 in 0.0 W/m2 CLR
18:59 13.9 °F 7.2 °F 1027.0 in NW 31.5 mph 31.5 mph 64 % 0.0 in 0.0 W/m2 CLR
19:04 13.9 °F 6.9 °F 1027.0 in NW 31.5 mph 31.5 mph 63 % 0.0 in 0.0 W/m2 CLR
19:09 13.9 °F 6.9 °F 1027.0 in NNW 25.7 mph 25.7 mph 63 % 0.0 in 0.0 W/m2 CLR
19:14 13.9 °F 7.2 °F 1027.0 in NW 33.8 mph 33.8 mph 64 % 0.0 in 0.0 W/m2 CLR
19:19 13.9 °F 7.2 °F 1027.0 in NW 25.9 mph 25.9 mph 64 % 0.0 in 0.0 W/m2 CLR
19:24 13.9 °F 6.9 °F 1027.0 in NW 19.3 mph 19.3 mph 63 % 0.0 in 0.0 W/m2 CLR
19:25 13.9 °F 7.2 °F 1027.0 in NW 25.7 mph 25.7 mph 64 % 0.0 in 0.0 W/m2 CLR
19:30 13.3 °F 6.7 °F 1027.0 in NNW 22.5 mph 22.5 mph 64 % 0.0 in 0.0 W/m2 CLR
19:35 13.3 °F 6.7 °F 1027.0 in NW 20.4 mph 20.4 mph 64 % 0.0 in 0.0 W/m2 CLR
19:40 13.3 °F 6.9 °F 1027.0 in NW 22.2 mph 22.2 mph 65 % 0.0 in 0.0 W/m2 CLR
19:45 13.3 °F 6.9 °F 1027.0 in NNW 24.1 mph 24.1 mph 65 % 0.0 in 0.0 W/m2 CLR
19:50 13.3 °F 6.9 °F 1027.0 in NNW 33.8 mph 33.8 mph 65 % 0.0 in 0.0 W/m2 CLR
19:55 13.3 °F 6.9 °F 1027.0 in NW 24.1 mph 24.1 mph 65 % 0.0 in 0.0 W/m2 CLR
20:00 13.3 °F 6.9 °F 1027.0 in NW 29.6 mph 29.6 mph 65 % 0.0 in 0.0 W/m2 CLR
20:05 13.3 °F 6.9 °F 1027.0 in NW 22.2 mph 22.2 mph 65 % 0.0 in 0.0 W/m2 CLR
20:10 13.3 °F 7.1 °F 1027.0 in WNW 20.4 mph 20.4 mph 66 % 0.0 in 0.0 W/m2 CLR
20:15 13.3 °F 7.1 °F 1027.0 in NW 22.2 mph 22.2 mph 66 % 0.0 in 0.0 W/m2 CLR
20:20 13.3 °F 7.1 °F 1027.0 in NW 24.1 mph 24.1 mph 66 % 0.0 in 0.0 W/m2 CLR
20:25 13.3 °F 7.1 °F 1027.0 in WNW 22.2 mph 22.2 mph 66 % 0.0 in 0.0 W/m2 CLR
20:35 12.8 °F 6.3 °F 1027.0 in WNW 22.2 mph 22.2 mph 65 % 0.0 in 0.0 W/m2 CLR
20:40 12.8 °F 6.3 °F 1027.0 in WNW 22.5 mph 22.5 mph 65 % 0.0 in 0.0 W/m2 CLR
20:45 12.8 °F 6.3 °F 1026.6 in NW 25.9 mph 25.9 mph 65 % 0.0 in 0.0 W/m2 CLR
20:50 12.8 °F 6.3 °F 1026.6 in WNW 22.2 mph 22.2 mph 65 % 0.0 in 0.0 W/m2 CLR
20:56 12.8 °F 6.3 °F 1026.6 in NW 24.1 mph 24.1 mph 65 % 0.0 in 0.0 W/m2 CLR
21:01 12.8 °F 6.3 °F 1026.6 in NW 27.8 mph 27.8 mph 65 % 0.0 in 0.0 W/m2 CLR
21:06 12.8 °F 6.3 °F 1026.6 in NW 42.6 mph 42.6 mph 65 % 0.0 in 0.0 W/m2 CLR
21:11 12.8 °F 6.3 °F 1026.6 in NW 37.0 mph 37.0 mph 65 % 0.0 in 0.0 W/m2 CLR
21:16 12.8 °F 6.3 °F 1027.0 in NW 24.1 mph 24.1 mph 65 % 0.0 in 0.0 W/m2 CLR
21:21 12.8 °F 6.3 °F 1027.0 in NW 29.6 mph 29.6 mph 65 % 0.0 in 0.0 W/m2 CLR
21:26 12.8 °F 6.3 °F 1027.0 in WNW 27.4 mph 27.4 mph 65 % 0.0 in 0.0 W/m2 CLR
21:30 12.8 °F 6.3 °F 1026.6 in NW 29.6 mph 29.6 mph 65 % 0.0 in 0.0 W/m2 CLR
21:31 12.8 °F 6.3 °F 1026.6 in NW 29.6 mph 29.6 mph 65 % 0.0 in 0.0 W/m2 CLR
21:36 12.8 °F 6.3 °F 1026.6 in NW 29.6 mph 29.6 mph 65 % 0.0 in 0.0 W/m2 CLR
21:41 12.8 °F 6.3 °F 1026.3 in NW 29.6 mph 29.6 mph 65 % 0.0 in 0.0 W/m2 CLR
21:46 12.8 °F 6.3 °F 1026.6 in WNW 29.6 mph 29.6 mph 65 % 0.0 in 0.0 W/m2 CLR
21:51 12.8 °F 6.3 °F 1026.6 in NW 25.9 mph 25.9 mph 65 % 0.0 in 0.0 W/m2 CLR
21:56 12.8 °F 6.3 °F 1026.6 in NW 25.9 mph 25.9 mph 65 % 0.0 in 0.0 W/m2 CLR
22:01 12.8 °F 6.3 °F 1026.6 in WNW 22.2 mph 22.2 mph 65 % 0.0 in 0.0 W/m2 CLR
22:06 12.8 °F 6.1 °F 1026.6 in NW 27.8 mph 27.8 mph 64 % 0.0 in 0.0 W/m2 CLR
22:11 12.8 °F 6.1 °F 1026.6 in West 20.4 mph 20.4 mph 64 % 0.0 in 0.0 W/m2 CLR
22:16 12.2 °F 5.6 °F 1026.6 in WNW 20.4 mph 20.4 mph 64 % 0.0 in 0.0 W/m2 CLR
22:21 12.2 °F 5.6 °F 1026.6 in NW 14.8 mph 14.8 mph 64 % 0.0 in 0.0 W/m2 CLR
22:26 12.2 °F 5.6 °F 1026.6 in NW 27.8 mph 27.8 mph 64 % 0.0 in 0.0 W/m2 CLR
22:31 12.2 °F 5.6 °F 1026.6 in NW 24.1 mph 24.1 mph 64 % 0.0 in 0.0 W/m2 CLR
22:36 12.2 °F 5.6 °F 1026.6 in WNW 25.9 mph 25.9 mph 64 % 0.0 in 0.0 W/m2 CLR
22:41 12.2 °F 5.6 °F 1027.0 in WSW 18.5 mph 18.5 mph 64 % 0.0 in 0.0 W/m2 CLR
22:46 12.2 °F 5.8 °F 1026.6 in WNW 18.5 mph 18.5 mph 65 % 0.0 in 0.0 W/m2 CLR
22:51 12.2 °F 5.8 °F 1026.6 in NW 20.4 mph 20.4 mph 65 % 0.0 in 0.0 W/m2 CLR
22:56 11.7 °F 5.3 °F 1026.6 in WNW 19.3 mph 19.3 mph 65 % 0.0 in 0.0 W/m2 CLR
23:01 11.7 °F 5.3 °F 1026.6 in West 18.5 mph 18.5 mph 65 % 0.0 in 0.0 W/m2 CLR
23:06 11.7 °F 5.3 °F 1026.6 in WSW 14.8 mph 14.8 mph 65 % 0.0 in 0.0 W/m2 CLR
23:12 11.7 °F 5.5 °F 1026.6 in West 14.8 mph 14.8 mph 66 % 0.0 in 0.0 W/m2 CLR
23:17 11.7 °F 5.7 °F 1026.6 in WSW 12.9 mph 12.9 mph 67 % 0.0 in 0.0 W/m2 CLR
23:22 11.7 °F 5.7 °F 1026.6 in West 13.0 mph 13.0 mph 67 % 0.0 in 0.0 W/m2 CLR
23:27 11.1 °F 5.2 °F 1026.6 in West 16.7 mph 16.7 mph 67 % 0.0 in 0.0 W/m2 CLR
23:32 11.1 °F 5.2 °F 1026.6 in West 9.7 mph 9.7 mph 67 % 0.0 in 0.0 W/m2 CLR
23:37 10.6 °F 4.7 °F 1026.6 in WNW 16.7 mph 16.7 mph 67 % 0.0 in 0.0 W/m2 CLR
23:42 10.0 °F 3.9 °F 1026.6 in WNW 25.9 mph 25.9 mph 66 % 0.0 in 0.0 W/m2 CLR
23:47 10.0 °F 3.9 °F 1026.3 in NW 20.4 mph 20.4 mph 66 % 0.0 in 0.0 W/m2 CLR
23:52 10.0 °F 3.7 °F 1026.3 in West 18.5 mph 18.5 mph 65 % 0.0 in 0.0 W/m2 CLR
23:57 10.6 °F 4.2 °F 1026.3 in WNW 22.2 mph 22.2 mph 65 % 0.0 in 0.0 W/m2 CLR
Lo Temps de Massalio
Compliments of Weather Underground - 1.25 mb